createdAt,value
2023-03-07T00:01:37.236Z,3.64
2023-03-07T00:04:04.270Z,3.66
2023-03-07T00:06:31.581Z,3.67
2023-03-07T00:09:02.478Z,3.68
2023-03-07T00:11:29.512Z,3.68
2023-03-07T00:13:56.356Z,3.66
2023-03-07T00:16:25.117Z,3.66
2023-03-07T00:18:51.794Z,3.65
2023-03-07T00:21:22.000Z,3.64
2023-03-07T00:23:51.510Z,3.63
2023-03-07T00:26:21.050Z,3.60
2023-03-07T00:28:50.407Z,3.59
2023-03-07T00:31:18.343Z,3.56
2023-03-07T00:33:45.100Z,3.54
2023-03-07T00:36:17.965Z,3.53
2023-03-07T00:38:45.517Z,3.49
2023-03-07T00:41:18.079Z,3.50
2023-03-07T00:43:48.297Z,3.49
2023-03-07T00:46:16.460Z,3.47
2023-03-07T00:48:43.745Z,3.45
2023-03-07T00:51:12.637Z,3.46
2023-03-07T00:53:40.086Z,3.43
2023-03-07T00:56:15.700Z,3.37
2023-03-07T00:58:42.690Z,3.33
2023-03-07T01:01:11.373Z,3.33
2023-03-07T01:03:38.257Z,3.33
2023-03-07T01:06:07.602Z,3.33
2023-03-07T01:08:34.816Z,3.30
2023-03-07T01:11:04.906Z,3.29
2023-03-07T01:13:33.235Z,3.27
2023-03-07T01:16:24.665Z,3.23
2023-03-07T01:18:54.120Z,3.22
2023-03-07T01:21:26.598Z,3.20
2023-03-07T01:23:53.622Z,3.18
2023-03-07T01:26:23.590Z,3.16
2023-03-07T01:28:52.112Z,3.15
2023-03-07T01:31:19.135Z,3.12
2023-03-07T01:33:48.041Z,3.10
2023-03-07T01:36:25.452Z,3.07
2023-03-07T01:38:55.813Z,3.04
2023-03-07T01:41:23.035Z,3.04
2023-03-07T01:43:50.740Z,3.01
2023-03-07T01:46:17.546Z,3.01
2023-03-07T01:49:11.233Z,2.97
2023-03-07T01:51:40.828Z,2.93
2023-03-07T01:54:10.968Z,2.94
2023-03-07T01:56:39.401Z,2.90
2023-03-07T01:59:07.364Z,2.88
2023-03-07T02:01:34.693Z,2.84
2023-03-07T02:04:09.864Z,2.82
2023-03-07T02:06:38.195Z,2.80
2023-03-07T02:09:13.328Z,2.76
2023-03-07T02:11:45.058Z,2.74
2023-03-07T02:14:11.997Z,2.68
2023-03-07T02:16:39.909Z,2.65
2023-03-07T02:19:22.354Z,2.63
2023-03-07T02:22:08.933Z,2.58
2023-03-07T02:25:01.306Z,2.52
2023-03-07T02:27:30.340Z,2.42
2023-03-07T02:29:57.179Z,2.41
2023-03-07T02:32:24.017Z,2.36
2023-03-07T02:34:50.632Z,2.32
2023-03-07T02:37:26.786Z,2.31
2023-03-07T02:39:54.980Z,2.30
2023-03-07T02:42:25.660Z,2.27
2023-03-07T02:44:58.050Z,2.25
2023-03-07T02:47:24.979Z,2.25
2023-03-07T02:49:51.577Z,2.24
2023-03-07T02:52:18.284Z,2.22
2023-03-07T02:54:44.899Z,2.17
2023-03-07T02:57:11.551Z,2.15
2023-03-07T02:59:38.162Z,2.11
2023-03-07T03:02:04.955Z,2.09
2023-03-07T03:04:31.740Z,2.07
2023-03-07T03:06:58.378Z,2.07
2023-03-07T03:09:25.426Z,2.06
2023-03-07T03:11:52.058Z,2.02
2023-03-07T03:14:18.806Z,1.96
2023-03-07T03:16:45.476Z,1.93
2023-03-07T03:19:12.173Z,1.89
2023-03-07T03:21:38.972Z,1.87
2023-03-07T03:24:09.142Z,1.84
2023-03-07T03:26:36.759Z,1.80
2023-03-07T03:29:05.360Z,1.79
2023-03-07T03:31:33.274Z,1.75
2023-03-07T03:33:59.991Z,1.72
2023-03-07T03:36:27.737Z,1.69
2023-03-07T03:38:59.095Z,1.64
2023-03-07T03:41:26.409Z,1.62
2023-03-07T03:43:53.037Z,1.59
2023-03-07T03:46:20.454Z,1.56
2023-03-07T03:48:56.512Z,1.53
2023-03-07T03:51:24.627Z,1.51
2023-03-07T03:53:51.492Z,1.50
2023-03-07T03:56:21.186Z,1.46
2023-03-07T03:58:49.717Z,1.47
2023-03-07T04:01:16.513Z,1.43
2023-03-07T04:03:46.134Z,1.41
2023-03-07T04:06:25.322Z,1.32
2023-03-07T04:08:53.413Z,1.30
2023-03-07T04:11:21.271Z,1.26
2023-03-07T04:13:48.093Z,1.25
2023-03-07T04:16:15.401Z,1.21
2023-03-07T04:18:42.937Z,1.17
2023-03-07T04:21:11.193Z,1.14
2023-03-07T04:23:38.244Z,1.12
2023-03-07T04:26:06.961Z,1.13
2023-03-07T04:28:46.389Z,1.10
2023-03-07T04:31:28.770Z,1.09
2023-03-07T04:33:56.431Z,1.10
2023-03-07T04:36:25.032Z,1.08
2023-03-07T04:38:51.958Z,1.07
2023-03-07T04:41:23.779Z,1.04
2023-03-07T04:43:50.536Z,1.02
2023-03-07T04:46:18.274Z,1.01
2023-03-07T04:48:46.220Z,1.00
2023-03-07T04:51:13.171Z,0.96
2023-03-07T04:53:39.832Z,0.96
2023-03-07T04:56:08.381Z,0.90
2023-03-07T04:58:35.904Z,0.84
2023-03-07T05:01:04.704Z,0.79
2023-03-07T05:03:32.097Z,0.79
2023-03-07T05:06:02.896Z,0.75
2023-03-07T05:08:29.778Z,0.71
2023-03-07T05:10:57.304Z,0.72
2023-03-07T05:13:23.958Z,0.69
2023-03-07T05:15:55.670Z,0.65
2023-03-07T05:18:25.252Z,0.58
2023-03-07T05:20:52.152Z,0.58
2023-03-07T05:23:19.367Z,0.56
2023-03-07T05:25:49.288Z,0.53
2023-03-07T05:28:17.006Z,0.52
2023-03-07T05:30:47.479Z,0.52
2023-03-07T05:33:15.088Z,0.50
2023-03-07T05:35:41.928Z,0.45
2023-03-07T05:38:08.682Z,0.42
2023-03-07T05:40:35.806Z,0.40
2023-03-07T05:43:02.817Z,0.40
2023-03-07T05:45:29.604Z,0.40
2023-03-07T05:47:56.222Z,0.37
2023-03-07T05:50:23.995Z,0.39
2023-03-07T05:52:50.683Z,0.39
2023-03-07T05:55:17.343Z,0.38
2023-03-07T05:57:44.243Z,0.40
2023-03-07T06:00:11.531Z,0.40
2023-03-07T06:02:38.255Z,0.39
2023-03-07T06:05:05.189Z,0.38
2023-03-07T06:07:31.925Z,0.38
2023-03-07T06:09:58.591Z,0.38
2023-03-07T06:12:27.657Z,0.35
2023-03-07T06:14:54.297Z,0.33
2023-03-07T06:17:20.898Z,0.32
2023-03-07T06:19:48.059Z,0.30
2023-03-07T06:22:14.743Z,0.29
2023-03-07T06:24:41.414Z,0.29
2023-03-07T06:27:08.024Z,0.29
2023-03-07T06:29:34.897Z,0.28
2023-03-07T06:32:01.547Z,0.30
2023-03-07T06:34:29.195Z,0.28
2023-03-07T06:36:55.908Z,0.25
2023-03-07T06:39:22.581Z,0.24
2023-03-07T06:41:50.716Z,0.27
2023-03-07T06:44:18.252Z,0.28
2023-03-07T06:46:45.904Z,0.26
2023-03-07T06:49:12.806Z,0.24
2023-03-07T06:51:39.498Z,0.26
2023-03-07T06:54:06.147Z,0.28
2023-03-07T06:56:34.406Z,0.30
2023-03-07T06:59:01.444Z,0.29
2023-03-07T07:01:28.350Z,0.26
2023-03-07T07:03:55.002Z,0.24
2023-03-07T07:06:21.967Z,0.23
2023-03-07T07:08:48.640Z,0.26
2023-03-07T07:11:15.237Z,0.26
2023-03-07T07:13:41.804Z,0.29
2023-03-07T07:16:08.993Z,0.32
2023-03-07T07:18:35.831Z,0.34
2023-03-07T07:21:02.585Z,0.35
2023-03-07T07:23:29.289Z,0.33
2023-03-07T07:25:56.048Z,0.32
2023-03-07T07:28:23.285Z,0.34
2023-03-07T07:30:49.913Z,0.33
2023-03-07T07:33:17.071Z,0.31
2023-03-07T07:35:44.246Z,0.31
2023-03-07T07:38:11.351Z,0.32
2023-03-07T07:40:38.033Z,0.32
2023-03-07T07:43:04.806Z,0.31
2023-03-07T07:45:32.947Z,0.28
2023-03-07T07:47:59.588Z,0.26
2023-03-07T07:50:26.287Z,0.24
2023-03-07T07:52:54.469Z,0.25
2023-03-07T07:55:21.973Z,0.23
2023-03-07T07:57:48.598Z,0.24
2023-03-07T08:00:19.542Z,0.21
2023-03-07T08:02:46.680Z,0.19
2023-03-07T08:05:13.845Z,0.14
2023-03-07T08:07:40.538Z,0.10
2023-03-07T08:10:08.090Z,0.08
2023-03-07T08:12:34.737Z,0.06
2023-03-07T08:15:01.383Z,0.08
2023-03-07T08:17:30.986Z,0.09
2023-03-07T08:20:01.833Z,0.05
2023-03-07T08:22:28.585Z,0.06
2023-03-07T08:24:55.200Z,0.10
2023-03-07T08:27:21.852Z,0.11
2023-03-07T08:29:49.390Z,0.15
2023-03-07T08:32:16.435Z,0.20
2023-03-07T08:34:43.118Z,0.25
2023-03-07T08:37:10.490Z,0.24
2023-03-07T08:39:37.356Z,0.24
2023-03-07T08:42:04.326Z,0.29
2023-03-07T08:44:31.007Z,0.34
2023-03-07T08:46:57.681Z,0.36
2023-03-07T08:49:24.565Z,0.38
2023-03-07T08:51:51.189Z,0.39
2023-03-07T08:54:17.804Z,0.46
2023-03-07T08:56:44.566Z,0.51
2023-03-07T08:59:11.196Z,0.55
2023-03-07T09:01:39.634Z,0.60
2023-03-07T09:04:07.674Z,0.69
2023-03-07T09:06:34.387Z,0.75
2023-03-07T09:09:01.050Z,0.78
2023-03-07T09:11:27.807Z,0.82
2023-03-07T09:13:54.597Z,0.85
2023-03-07T09:16:22.497Z,0.91
2023-03-07T09:18:51.054Z,0.98
2023-03-07T09:21:17.730Z,1.03
2023-03-07T09:23:44.433Z,1.05
2023-03-07T09:26:11.399Z,1.08
2023-03-07T09:28:38.104Z,1.13
2023-03-07T09:31:10.703Z,1.20
2023-03-07T09:33:37.396Z,1.26
2023-03-07T09:36:08.615Z,1.27
2023-03-07T09:38:36.078Z,1.29
2023-03-07T09:41:41.518Z,1.34
2023-03-07T09:44:17.131Z,1.40
2023-03-07T09:47:02.120Z,1.44
2023-03-07T09:49:53.534Z,1.49
2023-03-07T09:52:25.007Z,1.54
2023-03-07T09:55:01.132Z,1.59
2023-03-07T09:57:33.307Z,1.59
2023-03-07T10:00:14.864Z,1.60
2023-03-07T10:02:53.768Z,1.63
2023-03-07T10:05:38.461Z,1.66
2023-03-07T10:08:07.147Z,1.72
2023-03-07T10:10:42.252Z,1.80
2023-03-07T10:13:17.781Z,1.91
2023-03-07T10:15:47.881Z,1.94
2023-03-07T10:18:36.083Z,1.99
2023-03-07T10:21:24.586Z,2.06
2023-03-07T10:24:39.040Z,2.15
2023-03-07T10:27:08.323Z,2.15
2023-03-07T10:29:44.877Z,2.21
2023-03-07T10:32:20.119Z,2.24
2023-03-07T10:34:53.723Z,2.26
2023-03-07T10:37:21.989Z,2.30
2023-03-07T10:39:56.907Z,2.37
2023-03-07T10:42:26.982Z,2.42
2023-03-07T10:44:54.866Z,2.47
2023-03-07T10:47:27.876Z,2.51
2023-03-07T10:50:02.442Z,2.59
2023-03-07T10:52:39.110Z,2.66
2023-03-07T10:55:31.792Z,2.73
2023-03-07T10:58:21.517Z,2.82
2023-03-07T11:01:19.607Z,2.92
2023-03-07T11:03:54.295Z,3.02
2023-03-07T11:06:40.696Z,3.17
2023-03-07T11:09:11.243Z,3.24
2023-03-07T11:11:38.282Z,3.36
2023-03-07T11:14:13.349Z,3.74
2023-03-07T11:16:59.272Z,4.46
2023-03-07T11:19:33.741Z,5.31
2023-03-07T11:22:03.690Z,6.01
2023-03-07T11:24:51.853Z,6.64
2023-03-07T11:27:44.928Z,6.83
2023-03-07T11:30:38.215Z,6.52
2023-03-07T11:33:17.978Z,6.17
2023-03-07T11:35:56.710Z,5.88
2023-03-07T11:38:34.471Z,5.67
2023-03-07T11:41:28.924Z,5.52
2023-03-07T11:44:14.699Z,5.36
2023-03-07T11:46:53.689Z,5.20
2023-03-07T11:49:50.734Z,5.06
2023-03-07T11:52:57.504Z,4.99
2023-03-07T11:55:47.579Z,4.88
2023-03-07T11:58:51.396Z,4.84
2023-03-07T12:01:23.970Z,4.82
2023-03-07T12:04:12.098Z,4.81
2023-03-07T12:06:56.344Z,4.83
2023-03-07T12:09:45.222Z,4.88
2023-03-07T12:12:27.681Z,4.85
2023-03-07T12:14:54.274Z,4.82
2023-03-07T12:17:42.324Z,4.79
2023-03-07T12:20:30.251Z,4.83
2023-03-07T12:23:22.771Z,4.83
2023-03-07T12:25:54.576Z,4.82
2023-03-07T12:28:28.013Z,4.76
2023-03-07T12:30:58.153Z,4.78
2023-03-07T12:33:51.557Z,4.85
2023-03-07T12:36:42.360Z,4.88
2023-03-07T12:39:28.095Z,4.89
2023-03-07T12:42:01.782Z,4.89
2023-03-07T12:44:46.604Z,4.93
2023-03-07T12:47:22.081Z,5.02
2023-03-07T12:50:00.926Z,5.11
2023-03-07T12:52:53.862Z,5.22
2023-03-07T12:55:39.337Z,5.38
2023-03-07T12:58:32.000Z,5.54
2023-03-07T13:01:02.476Z,5.62
2023-03-07T13:03:45.432Z,5.70
2023-03-07T13:06:18.222Z,5.74
2023-03-07T13:08:49.912Z,5.81
2023-03-07T13:11:19.707Z,5.87
2023-03-07T13:13:46.364Z,5.91
2023-03-07T13:16:32.019Z,6.00
2023-03-07T13:19:36.326Z,6.15
2023-03-07T13:22:23.854Z,6.25
2023-03-07T13:24:55.541Z,6.22
2023-03-07T13:27:45.079Z,6.42
2023-03-07T13:30:11.875Z,6.53
2023-03-07T13:32:56.729Z,6.69
2023-03-07T13:35:29.540Z,6.80
2023-03-07T13:38:13.492Z,6.75
2023-03-07T13:40:48.746Z,6.78
2023-03-07T13:43:55.877Z,6.88
2023-03-07T13:46:31.618Z,6.99
2023-03-07T13:49:00.911Z,6.96
2023-03-07T13:51:29.878Z,7.08
2023-03-07T13:54:11.119Z,7.26
2023-03-07T13:56:42.048Z,7.52
2023-03-07T13:59:14.704Z,7.69
2023-03-07T14:02:01.517Z,7.75
2023-03-07T14:04:41.734Z,7.61
2023-03-07T14:07:31.927Z,7.35
2023-03-07T14:10:22.482Z,7.07
2023-03-07T14:13:17.730Z,7.10
2023-03-07T14:16:22.037Z,7.40
2023-03-07T14:19:11.668Z,7.77
2023-03-07T14:22:29.468Z,8.17
2023-03-07T14:25:08.364Z,8.29
2023-03-07T14:27:50.798Z,8.36
2023-03-07T14:30:18.026Z,8.22
2023-03-07T14:32:44.775Z,7.77
2023-03-07T14:35:15.420Z,7.36
2023-03-07T14:37:44.100Z,7.01
2023-03-07T14:40:29.118Z,6.80
2023-03-07T14:43:16.226Z,6.72
2023-03-07T14:46:09.214Z,7.13
2023-03-07T14:48:38.884Z,7.51
2023-03-07T14:51:17.572Z,7.78
2023-03-07T14:53:44.431Z,8.01
2023-03-07T14:56:14.443Z,8.15
2023-03-07T14:58:53.774Z,8.30
2023-03-07T15:01:20.890Z,8.03
2023-03-07T15:03:53.791Z,7.65
2023-03-07T15:06:23.456Z,7.42
2023-03-07T15:08:52.070Z,7.55
2023-03-07T15:11:40.308Z,7.81
2023-03-07T15:14:14.811Z,7.90
2023-03-07T15:16:46.709Z,7.95
2023-03-07T15:19:43.808Z,7.74
2023-03-07T15:22:18.428Z,7.64
2023-03-07T15:24:48.423Z,7.91
2023-03-07T15:27:22.688Z,8.18
2023-03-07T15:29:49.468Z,8.31
2023-03-07T15:32:40.905Z,8.27
2023-03-07T15:35:07.574Z,8.27
2023-03-07T15:37:36.078Z,8.21
2023-03-07T15:40:08.818Z,8.16
2023-03-07T15:42:48.900Z,7.99
2023-03-07T15:45:33.566Z,7.96
2023-03-07T15:48:03.259Z,7.91
2023-03-07T15:50:30.068Z,7.87
2023-03-07T15:53:09.095Z,7.82
2023-03-07T15:55:38.362Z,7.76
2023-03-07T15:58:13.691Z,7.46
2023-03-07T16:00:41.872Z,7.09
2023-03-07T16:03:29.522Z,6.74
2023-03-07T16:05:58.818Z,6.55
2023-03-07T16:08:26.160Z,6.38
2023-03-07T16:11:05.077Z,6.31
2023-03-07T16:13:40.901Z,6.30
2023-03-07T16:16:20.038Z,6.36
2023-03-07T16:18:47.694Z,6.52
2023-03-07T16:21:16.637Z,6.72
2023-03-07T16:23:43.947Z,6.78
2023-03-07T16:26:16.529Z,6.82
2023-03-07T16:28:44.358Z,6.88
2023-03-07T16:31:13.181Z,6.92
2023-03-07T16:33:40.501Z,6.92
2023-03-07T16:36:08.751Z,6.98
2023-03-07T16:38:35.527Z,6.95
2023-03-07T16:41:06.124Z,6.84
2023-03-07T16:43:38.198Z,6.75
2023-03-07T16:46:15.123Z,6.64
2023-03-07T16:48:42.974Z,6.44
2023-03-07T16:51:18.303Z,6.27
2023-03-07T16:53:45.920Z,6.03
2023-03-07T16:56:25.028Z,5.82
2023-03-07T16:58:52.565Z,5.68
2023-03-07T17:01:19.405Z,5.55
2023-03-07T17:03:46.109Z,5.43
2023-03-07T17:06:16.352Z,5.29
2023-03-07T17:08:45.493Z,5.18
2023-03-07T17:11:19.408Z,5.14
2023-03-07T17:13:47.855Z,5.16
2023-03-07T17:16:19.148Z,5.08
2023-03-07T17:18:45.926Z,5.05
2023-03-07T17:21:15.451Z,5.04
2023-03-07T17:23:44.079Z,4.99
2023-03-07T17:26:31.366Z,4.91
2023-03-07T17:29:01.993Z,4.85
2023-03-07T17:31:28.702Z,4.82
2023-03-07T17:33:55.562Z,4.76
2023-03-07T17:36:22.407Z,4.72
2023-03-07T17:38:49.101Z,4.70
2023-03-07T17:41:15.720Z,4.64
2023-03-07T17:43:42.325Z,4.62
2023-03-07T17:46:10.455Z,4.55
2023-03-07T17:48:38.062Z,4.47
2023-03-07T17:51:09.612Z,4.44
2023-03-07T17:53:37.512Z,4.39
2023-03-07T17:56:09.141Z,4.33
2023-03-07T17:58:35.996Z,4.28
2023-03-07T18:01:02.660Z,4.22
2023-03-07T18:03:29.284Z,4.20
2023-03-07T18:05:55.970Z,4.16
2023-03-07T18:08:22.584Z,4.13
2023-03-07T18:10:49.264Z,4.06
2023-03-07T18:13:16.005Z,4.03
2023-03-07T18:15:46.564Z,3.99
2023-03-07T18:18:13.505Z,3.96
2023-03-07T18:20:40.446Z,3.89
2023-03-07T18:23:07.712Z,3.86
2023-03-07T18:25:34.410Z,3.81
2023-03-07T18:28:02.491Z,3.76
2023-03-07T18:30:29.331Z,3.73
2023-03-07T18:32:56.125Z,3.67
2023-03-07T18:35:23.556Z,3.65
2023-03-07T18:37:50.226Z,3.63
2023-03-07T18:40:19.482Z,3.60
2023-03-07T18:42:46.264Z,3.58
2023-03-07T18:45:12.985Z,3.57
2023-03-07T18:47:39.630Z,3.52
2023-03-07T18:50:08.127Z,3.47
2023-03-07T18:52:34.839Z,3.40
2023-03-07T18:55:01.469Z,3.37
2023-03-07T18:57:28.237Z,3.34
2023-03-07T18:59:54.940Z,3.33
2023-03-07T19:02:22.807Z,3.33
2023-03-07T19:04:49.550Z,3.28
2023-03-07T19:07:16.288Z,3.21
2023-03-07T19:09:44.942Z,3.14
2023-03-07T19:12:12.525Z,3.13
2023-03-07T19:14:39.287Z,3.12
2023-03-07T19:17:06.425Z,3.14
2023-03-07T19:19:35.864Z,3.12
2023-03-07T19:22:02.532Z,3.09
2023-03-07T19:24:29.105Z,3.03
2023-03-07T19:26:55.992Z,2.99
2023-03-07T19:29:22.619Z,2.95
2023-03-07T19:31:49.372Z,2.91
2023-03-07T19:34:16.231Z,2.87
2023-03-07T19:36:42.909Z,2.82
2023-03-07T19:39:14.609Z,2.80
2023-03-07T19:41:41.254Z,2.78
2023-03-07T19:44:12.173Z,2.76
2023-03-07T19:46:46.017Z,2.75
2023-03-07T19:49:16.629Z,2.76
2023-03-07T19:51:43.565Z,2.79
2023-03-07T19:54:13.855Z,2.76
2023-03-07T19:56:42.646Z,2.77
2023-03-07T19:59:09.322Z,2.74
2023-03-07T20:01:36.063Z,2.71
2023-03-07T20:04:04.821Z,2.70
2023-03-07T20:06:31.858Z,2.71
2023-03-07T20:09:00.602Z,2.71
2023-03-07T20:11:35.040Z,2.70
2023-03-07T20:14:04.946Z,2.69
2023-03-07T20:16:32.916Z,2.67
2023-03-07T20:19:02.080Z,2.67
2023-03-07T20:21:29.535Z,2.65
2023-03-07T20:24:00.356Z,2.63
2023-03-07T20:26:32.801Z,2.62
2023-03-07T20:29:00.175Z,2.60
2023-03-07T20:31:28.049Z,2.57
2023-03-07T20:33:55.110Z,2.54
2023-03-07T20:36:27.710Z,2.56
2023-03-07T20:38:56.986Z,2.53
2023-03-07T20:41:26.368Z,2.54
2023-03-07T20:43:53.771Z,2.57
2023-03-07T20:46:22.101Z,2.56
2023-03-07T20:48:49.411Z,2.51
2023-03-07T20:51:22.045Z,2.46
2023-03-07T20:53:49.951Z,2.45
2023-03-07T20:56:17.932Z,2.44
2023-03-07T20:58:45.253Z,2.40
2023-03-07T21:01:12.966Z,2.37
2023-03-07T21:03:39.696Z,2.37
2023-03-07T21:06:06.826Z,2.37
2023-03-07T21:08:36.298Z,2.35
2023-03-07T21:11:12.896Z,2.34
2023-03-07T21:13:43.392Z,2.33
2023-03-07T21:16:13.993Z,2.31
2023-03-07T21:18:41.367Z,2.33
2023-03-07T21:21:10.443Z,2.34
2023-03-07T21:23:37.282Z,2.35
2023-03-07T21:26:07.053Z,2.35
2023-03-07T21:28:35.376Z,2.35
2023-03-07T21:31:04.590Z,2.35
2023-03-07T21:33:32.195Z,2.34
2023-03-07T21:35:59.275Z,2.37
2023-03-07T21:38:26.465Z,2.33
2023-03-07T21:40:56.937Z,2.30
2023-03-07T21:43:24.864Z,2.29
2023-03-07T21:45:51.589Z,2.30
2023-03-07T21:48:19.432Z,2.28
2023-03-07T21:50:49.783Z,2.28
2023-03-07T21:53:16.499Z,2.28
2023-03-07T21:56:13.650Z,2.28
2023-03-07T21:58:41.085Z,2.30
2023-03-07T22:01:26.209Z,2.30
2023-03-07T22:03:57.608Z,2.30
2023-03-07T22:06:25.751Z,2.31
2023-03-07T22:08:52.551Z,2.33
2023-03-07T22:11:19.313Z,2.34
2023-03-07T22:13:46.095Z,2.34
2023-03-07T22:16:15.919Z,2.34
2023-03-07T22:18:42.887Z,2.33
2023-03-07T22:21:13.624Z,2.32
2023-03-07T22:23:40.853Z,2.32
2023-03-07T22:26:09.770Z,2.31
2023-03-07T22:28:36.871Z,2.32
2023-03-07T22:31:09.691Z,2.34
2023-03-07T22:33:39.459Z,2.34
2023-03-07T22:36:08.588Z,2.34
2023-03-07T22:38:35.291Z,2.33
2023-03-07T22:41:03.471Z,2.32
2023-03-07T22:43:32.167Z,2.32
2023-03-07T22:46:00.213Z,2.33
2023-03-07T22:48:27.380Z,2.33
2023-03-07T22:50:54.562Z,2.33
2023-03-07T22:53:21.511Z,2.32
2023-03-07T22:55:48.346Z,2.33
2023-03-07T22:58:16.101Z,2.32
2023-03-07T23:00:44.459Z,2.33
2023-03-07T23:03:12.053Z,2.32
2023-03-07T23:05:38.737Z,2.28
2023-03-07T23:08:05.463Z,2.29
2023-03-07T23:10:32.274Z,2.28
2023-03-07T23:12:59.442Z,2.28
2023-03-07T23:15:27.685Z,2.28
2023-03-07T23:17:54.717Z,2.29
2023-03-07T23:20:25.440Z,2.30
2023-03-07T23:22:52.690Z,2.30
2023-03-07T23:25:20.045Z,2.30
2023-03-07T23:27:46.790Z,2.27
2023-03-07T23:30:13.828Z,2.27
2023-03-07T23:32:40.496Z,2.27
2023-03-07T23:35:07.463Z,2.27
2023-03-07T23:37:35.494Z,2.29
2023-03-07T23:40:02.304Z,2.28
2023-03-07T23:42:28.970Z,2.29
2023-03-07T23:44:56.735Z,2.27
2023-03-07T23:47:23.333Z,2.27
2023-03-07T23:49:49.979Z,2.27
2023-03-07T23:52:16.698Z,2.26
2023-03-07T23:54:46.107Z,2.28
2023-03-07T23:57:12.919Z,2.27
2023-03-07T23:59:39.747Z,2.27
